DLH221 WIII-EDDF
Flight info
| Callsign | DLH221 |
|---|---|
| Flight time | N/A |
| Altitude | 34000 |
| Route | DOLTA A585 GUSKO G579 VJB Y342 AROSO Y513 KALIL Y501 VIH R325 PUT L759 SATVA/N0501F360 L759 ENTAP DCT IBUDA DCT KKJ L760 UPLUB/N0500F380 L760 POSIG W10N DPN A589 ASARI L509 TAPIS M875 AMDAR/K0920F380 M875 REBKE DCT MANAT/N0495F380 R226 AKRAM/N0495F400 A477 BABUM A909 RODAR M11 REBLO UR317 TBN UW71 CRM UL746 ODERO DCT OPT DCT DEGET DCT ALAMU DCT TOVKA DCT DITIS DCT RAPET T170 VAGAB/N0420F240 T170 GAPLA T178 KERAX KERAX5D |
| Aircraft | A359/H-SDE2E3GHIJ3J4J5LM1ORWXY/LB1D1 |
Departure
| Time | 2026-04-30 11:28 |
|---|---|
| Airport | Soekarno-Hatta International Airport (WIII) |
Arrival
| Time | N/A |
|---|---|
| Airport | Frankfurt Main Airport (EDDF) |
| Time | Latitude | Longitude | Altitude | Speed | Heading |
|---|---|---|---|---|---|
| 2026-04-30 10:52 | -6.11842 | 106.66234 | 44 ft | 0 kts | 158° |
| 2026-04-30 11:17 | -6.11821 | 106.66225 | 42 ft | 4 kts | 158° |
| 2026-04-30 11:17 | -6.11796 | 106.66215 | 40 ft | 4 kts | 158° |
| 2026-04-30 11:17 | -6.11776 | 106.66207 | 41 ft | 4 kts | 158° |
| 2026-04-30 11:18 | -6.11759 | 106.66200 | 40 ft | 4 kts | 191° |
| 2026-04-30 11:18 | -6.11737 | 106.66228 | 41 ft | 4 kts | 248° |
| 2026-04-30 11:18 | -6.11727 | 106.66253 | 39 ft | 4 kts | 248° |
| 2026-04-30 11:19 | -6.11723 | 106.66265 | 42 ft | 1 kts | 248° |
| 2026-04-30 11:21 | -6.11725 | 106.66257 | 41 ft | 2 kts | 248° |
| 2026-04-30 11:21 | -6.11734 | 106.66236 | 41 ft | 9 kts | 248° |
| 2026-04-30 11:22 | -6.11780 | 106.66122 | 44 ft | 23 kts | 248° |
| 2026-04-30 11:22 | -6.11767 | 106.66016 | 44 ft | 9 kts | 332° |
| 2026-04-30 11:22 | -6.11701 | 106.65983 | 44 ft | 12 kts | 336° |
| 2026-04-30 11:22 | -6.11624 | 106.65951 | 44 ft | 12 kts | 337° |
| 2026-04-30 11:23 | -6.11553 | 106.65916 | 44 ft | 11 kts | 329° |
| 2026-04-30 11:23 | -6.11517 | 106.65862 | 44 ft | 7 kts | 277° |
| 2026-04-30 11:23 | -6.11567 | 106.65711 | 44 ft | 15 kts | 248° |
| 2026-04-30 11:24 | -6.11612 | 106.65601 | 44 ft | 18 kts | 248° |
| 2026-04-30 11:24 | -6.11644 | 106.65519 | 44 ft | 20 kts | 249° |
| 2026-04-30 11:24 | -6.11698 | 106.65382 | 45 ft | 22 kts | 248° |
| 2026-04-30 11:25 | -6.11825 | 106.65069 | 45 ft | 26 kts | 248° |
| 2026-04-30 11:25 | -6.11895 | 106.64894 | 45 ft | 28 kts | 248° |
| 2026-04-30 11:25 | -6.12039 | 106.64534 | 45 ft | 29 kts | 248° |
| 2026-04-30 11:26 | -6.12181 | 106.64175 | 45 ft | 21 kts | 248° |
| 2026-04-30 11:26 | -6.12238 | 106.64032 | 45 ft | 22 kts | 248° |
| 2026-04-30 11:26 | -6.12210 | 106.63903 | 47 ft | 21 kts | 332° |
| 2026-04-30 11:27 | -6.12082 | 106.63951 | 47 ft | 22 kts | 47° |
| 2026-04-30 11:27 | -6.12064 | 106.63979 | 46 ft | 0 kts | 61° |
| 2026-04-30 11:27 | -6.12050 | 106.64003 | 19 ft | 22 kts | 61° |
| 2026-04-30 11:27 | -6.11907 | 106.64322 | 46 ft | 64 kts | 68° |
| 2026-04-30 11:28 | -6.11312 | 106.65848 | 47 ft | 176 kts | 68° |
| 2026-04-30 11:28 | -6.10778 | 106.67047 | 579 ft | 195 kts | 69° |
| 2026-04-30 11:28 | -6.10306 | 106.68275 | 1219 ft | 182 kts | 73° |
| 2026-04-30 11:29 | -6.09864 | 106.69504 | 1453 ft | 194 kts | 54° |
| 2026-04-30 11:29 | -6.08711 | 106.70284 | 1617 ft | 211 kts | 17° |
| 2026-04-30 11:29 | -6.05725 | 106.71334 | 2072 ft | 243 kts | 26° |
| 2026-04-30 11:30 | -6.02661 | 106.72981 | 2879 ft | 257 kts | 31° |
| 2026-04-30 11:30 | -6.01103 | 106.73901 | 3376 ft | 261 kts | 32° |
| 2026-04-30 11:30 | -5.99542 | 106.74845 | 3915 ft | 263 kts | 33° |
| 2026-04-30 11:31 | -5.97902 | 106.75691 | 4384 ft | 269 kts | 16° |
| 2026-04-30 11:31 | -5.96032 | 106.75667 | 4820 ft | 275 kts | 343° |
| 2026-04-30 11:31 | -5.94425 | 106.74644 | 4986 ft | 278 kts | 311° |
| 2026-04-30 11:31 | -5.93584 | 106.72923 | 5026 ft | 280 kts | 281° |
| 2026-04-30 11:32 | -5.93264 | 106.70991 | 5012 ft | 283 kts | 281° |
| 2026-04-30 11:32 | -5.92812 | 106.69058 | 5008 ft | 283 kts | 287° |
| 2026-04-30 11:32 | -5.92195 | 106.67179 | 5011 ft | 283 kts | 291° |
| 2026-04-30 11:33 | -5.90711 | 106.63515 | 5012 ft | 283 kts | 295° |
| 2026-04-30 11:33 | -5.89917 | 106.61713 | 5011 ft | 283 kts | 295° |
| 2026-04-30 11:33 | -5.89099 | 106.59919 | 5116 ft | 282 kts | 296° |
| 2026-04-30 11:33 | -5.88273 | 106.58119 | 5476 ft | 284 kts | 296° |
| 2026-04-30 11:34 | -5.87441 | 106.56317 | 6044 ft | 285 kts | 296° |
| 2026-04-30 11:34 | -5.86604 | 106.54512 | 6587 ft | 286 kts | 296° |
| 2026-04-30 11:34 | -5.85760 | 106.52694 | 7054 ft | 289 kts | 296° |
| 2026-04-30 11:34 | -5.84906 | 106.50860 | 7577 ft | 290 kts | 296° |
| 2026-04-30 11:35 | -5.84058 | 106.49040 | 8101 ft | 293 kts | 296° |
| 2026-04-30 11:35 | -5.83190 | 106.47179 | 8660 ft | 295 kts | 296° |
| 2026-04-30 11:35 | -5.82313 | 106.45303 | 9198 ft | 297 kts | 296° |
| 2026-04-30 11:35 | -5.81433 | 106.43414 | 9742 ft | 300 kts | 296° |
| 2026-04-30 11:36 | -5.80549 | 106.41505 | 10196 ft | 305 kts | 296° |
| 2026-04-30 11:36 | -5.79632 | 106.39526 | 10431 ft | 319 kts | 296° |
| 2026-04-30 11:36 | -5.78680 | 106.37476 | 10636 ft | 332 kts | 296° |
| 2026-04-30 11:36 | -5.77684 | 106.35330 | 10847 ft | 345 kts | 296° |
| 2026-04-30 11:37 | -5.76648 | 106.33098 | 11052 ft | 357 kts | 296° |
| 2026-04-30 11:37 | -5.75595 | 106.30830 | 11229 ft | 368 kts | 296° |
| 2026-04-30 11:37 | -5.74425 | 106.28512 | 11426 ft | 378 kts | 303° |
| 2026-04-30 11:37 | -5.72679 | 106.26513 | 11582 ft | 384 kts | 324° |
| 2026-04-30 11:38 | -5.70416 | 106.25081 | 11927 ft | 386 kts | 332° |
| 2026-04-30 11:38 | -5.68062 | 106.23770 | 12287 ft | 389 kts | 332° |
| 2026-04-30 11:38 | -5.65680 | 106.22444 | 12659 ft | 392 kts | 332° |
| 2026-04-30 11:38 | -5.63291 | 106.21106 | 13025 ft | 395 kts | 332° |
| 2026-04-30 11:39 | -5.60882 | 106.19751 | 13395 ft | 398 kts | 332° |
| 2026-04-30 11:39 | -5.58465 | 106.18390 | 13765 ft | 400 kts | 332° |
| 2026-04-30 11:39 | -5.56031 | 106.17018 | 14080 ft | 402 kts | 332° |
| 2026-04-30 11:39 | -5.53584 | 106.15637 | 14407 ft | 404 kts | 332° |
| 2026-04-30 11:40 | -5.51126 | 106.14250 | 14730 ft | 406 kts | 332° |
| 2026-04-30 11:40 | -5.48657 | 106.12857 | 15056 ft | 408 kts | 332° |
| 2026-04-30 11:40 | -5.46171 | 106.11454 | 15387 ft | 410 kts | 332° |
| 2026-04-30 11:40 | -5.43714 | 106.10067 | 15692 ft | 412 kts | 332° |
| 2026-04-30 11:41 | -5.41179 | 106.08637 | 16015 ft | 414 kts | 332° |
| 2026-04-30 11:41 | -5.38693 | 106.07236 | 16319 ft | 416 kts | 332° |
| 2026-04-30 11:41 | -5.36167 | 106.05815 | 16637 ft | 418 kts | 332° |
| 2026-04-30 11:41 | -5.33629 | 106.04379 | 16936 ft | 420 kts | 332° |
| 2026-04-30 11:42 | -5.31084 | 106.02939 | 17244 ft | 421 kts | 332° |
| 2026-04-30 11:42 | -5.28520 | 106.01490 | 17537 ft | 424 kts | 332° |
| 2026-04-30 11:42 | -5.25951 | 106.00039 | 17853 ft | 425 kts | 332° |
| 2026-04-30 11:42 | -5.23350 | 105.98570 | 18150 ft | 428 kts | 332° |
| 2026-04-30 11:43 | -5.20757 | 105.97106 | 18404 ft | 430 kts | 332° |
| 2026-04-30 11:43 | -5.18142 | 105.95630 | 18656 ft | 431 kts | 332° |
| 2026-04-30 11:43 | -5.15517 | 105.94148 | 18907 ft | 433 kts | 332° |
| 2026-04-30 11:43 | -5.12912 | 105.92678 | 19146 ft | 435 kts | 332° |
| 2026-04-30 11:44 | -5.10271 | 105.91185 | 19402 ft | 437 kts | 332° |
| 2026-04-30 11:44 | -5.07618 | 105.89675 | 19665 ft | 438 kts | 332° |
| 2026-04-30 11:44 | -5.04963 | 105.88159 | 19904 ft | 440 kts | 332° |
| 2026-04-30 11:44 | -5.02298 | 105.86637 | 20156 ft | 441 kts | 332° |
| 2026-04-30 11:45 | -4.99619 | 105.85107 | 20405 ft | 443 kts | 332° |
| 2026-04-30 11:45 | -4.96933 | 105.83576 | 20657 ft | 445 kts | 332° |
| 2026-04-30 11:45 | -4.94233 | 105.82036 | 20906 ft | 446 kts | 332° |
| 2026-04-30 11:45 | -4.91533 | 105.80498 | 21150 ft | 448 kts | 332° |
| 2026-04-30 11:46 | -4.88808 | 105.78947 | 21405 ft | 450 kts | 332° |
| 2026-04-30 11:46 | -4.86086 | 105.77396 | 21662 ft | 451 kts | 332° |
| 2026-04-30 11:46 | -4.83384 | 105.75858 | 21904 ft | 453 kts | 332° |
| 2026-04-30 11:46 | -4.80641 | 105.74297 | 22163 ft | 455 kts | 332° |
| 2026-04-30 11:47 | -4.77888 | 105.72729 | 22428 ft | 456 kts | 332° |
| 2026-04-30 11:47 | -4.75114 | 105.71151 | 22691 ft | 458 kts | 332° |
| 2026-04-30 11:47 | -4.72333 | 105.69568 | 22921 ft | 460 kts | 332° |
| 2026-04-30 11:47 | -4.69546 | 105.67982 | 23184 ft | 462 kts | 332° |
| 2026-04-30 11:48 | -4.66746 | 105.66388 | 23442 ft | 463 kts | 332° |
| 2026-04-30 11:48 | -4.63939 | 105.64791 | 23652 ft | 465 kts | 332° |
| 2026-04-30 11:48 | -4.61120 | 105.63187 | 23865 ft | 467 kts | 332° |
| 2026-04-30 11:48 | -4.58288 | 105.61576 | 24088 ft | 468 kts | 332° |
| 2026-04-30 11:49 | -4.55451 | 105.59962 | 24311 ft | 469 kts | 332° |
| 2026-04-30 11:49 | -4.52640 | 105.58363 | 24535 ft | 471 kts | 332° |
| 2026-04-30 11:49 | -4.49779 | 105.56736 | 24766 ft | 472 kts | 332° |
| 2026-04-30 11:49 | -4.46921 | 105.55110 | 25001 ft | 474 kts | 332° |
| 2026-04-30 11:50 | -4.44041 | 105.53473 | 25237 ft | 475 kts | 332° |
| 2026-04-30 11:50 | -4.41156 | 105.51832 | 25478 ft | 477 kts | 332° |
| 2026-04-30 11:50 | -4.38263 | 105.50188 | 25721 ft | 479 kts | 332° |
| 2026-04-30 11:50 | -4.35358 | 105.48536 | 25971 ft | 481 kts | 332° |
| 2026-04-30 11:51 | -4.32450 | 105.46883 | 26230 ft | 482 kts | 332° |
| 2026-04-30 11:51 | -4.29555 | 105.45238 | 26489 ft | 484 kts | 331° |
| 2026-04-30 11:51 | -4.26583 | 105.43549 | 26760 ft | 486 kts | 331° |
| 2026-04-30 11:51 | -4.23635 | 105.41873 | 27027 ft | 488 kts | 331° |
| 2026-04-30 11:52 | -4.20716 | 105.40214 | 27288 ft | 490 kts | 331° |
| 2026-04-30 11:52 | -4.17699 | 105.38500 | 27561 ft | 492 kts | 331° |
| 2026-04-30 11:52 | -4.14747 | 105.36823 | 27830 ft | 494 kts | 331° |
| 2026-04-30 11:52 | -4.11751 | 105.35121 | 28100 ft | 496 kts | 331° |
| 2026-04-30 11:53 | -4.08738 | 105.33409 | 28349 ft | 499 kts | 332° |
| 2026-04-30 11:53 | -4.05718 | 105.31694 | 28598 ft | 501 kts | 332° |
| 2026-04-30 11:53 | -4.02676 | 105.29967 | 28845 ft | 502 kts | 331° |
| 2026-04-30 11:53 | -3.99625 | 105.28234 | 29084 ft | 504 kts | 332° |
| 2026-04-30 11:54 | -3.96556 | 105.26492 | 29319 ft | 506 kts | 331° |
| 2026-04-30 11:54 | -3.93479 | 105.24745 | 29547 ft | 508 kts | 331° |
| 2026-04-30 11:54 | -3.90396 | 105.22998 | 29761 ft | 510 kts | 332° |
| 2026-04-30 11:54 | -3.87302 | 105.21253 | 29979 ft | 512 kts | 332° |
| 2026-04-30 11:55 | -3.84234 | 105.19526 | 30142 ft | 514 kts | 332° |
| 2026-04-30 11:55 | -3.81122 | 105.17775 | 30317 ft | 515 kts | 332° |
| 2026-04-30 11:55 | -3.77982 | 105.16009 | 30507 ft | 516 kts | 332° |
| 2026-04-30 11:55 | -3.74859 | 105.14251 | 30760 ft | 515 kts | 332° |
| 2026-04-30 11:56 | -3.71736 | 105.12493 | 31012 ft | 515 kts | 332° |
| 2026-04-30 11:56 | -3.68606 | 105.10731 | 31247 ft | 514 kts | 332° |
| 2026-04-30 11:56 | -3.65496 | 105.08980 | 31476 ft | 514 kts | 332° |
| 2026-04-30 11:56 | -3.62367 | 105.07219 | 31715 ft | 514 kts | 332° |
| 2026-04-30 11:57 | -3.59257 | 105.05469 | 31946 ft | 513 kts | 332° |
| 2026-04-30 11:57 | -3.56130 | 105.03710 | 32183 ft | 513 kts | 332° |
| 2026-04-30 11:57 | -3.53025 | 105.01963 | 32404 ft | 513 kts | 332° |
| 2026-04-30 11:57 | -3.49921 | 105.00216 | 32616 ft | 512 kts | 332° |
| 2026-04-30 11:58 | -3.46849 | 104.98488 | 32840 ft | 512 kts | 332° |
| 2026-04-30 11:58 | -3.43749 | 104.96744 | 33066 ft | 511 kts | 332° |
| 2026-04-30 11:58 | -3.40638 | 104.94994 | 33258 ft | 511 kts | 332° |
| 2026-04-30 11:58 | -3.37540 | 104.93251 | 33480 ft | 511 kts | 332° |
| 2026-04-30 11:59 | -3.34453 | 104.91515 | 33683 ft | 510 kts | 332° |
| 2026-04-30 11:59 | -3.31352 | 104.89771 | 33859 ft | 511 kts | 332° |
| 2026-04-30 11:59 | -3.25095 | 104.86254 | 33892 ft | 517 kts | 332° |
| 2026-04-30 12:00 | -3.18874 | 104.82756 | 33889 ft | 516 kts | 332° |
| 2026-04-30 12:00 | -3.12601 | 104.79229 | 33887 ft | 516 kts | 332° |
| 2026-04-30 12:01 | -3.06328 | 104.75704 | 33886 ft | 517 kts | 332° |
| 2026-04-30 12:01 | -3.00063 | 104.72183 | 33886 ft | 517 kts | 332° |
| 2026-04-30 12:02 | -2.93773 | 104.68648 | 33884 ft | 517 kts | 332° |
| 2026-04-30 12:02 | -2.87317 | 104.65506 | 33886 ft | 514 kts | 343° |
| 2026-04-30 12:03 | -2.76922 | 104.63171 | 33881 ft | 513 kts | 351° |
| 2026-04-30 12:04 | -2.69908 | 104.61885 | 33885 ft | 512 kts | 351° |
| 2026-04-30 12:04 | -2.62900 | 104.60595 | 33887 ft | 512 kts | 351° |
| 2026-04-30 12:05 | -2.55874 | 104.59276 | 33891 ft | 512 kts | 351° |
| 2026-04-30 12:05 | -2.48862 | 104.57951 | 33889 ft | 512 kts | 351° |
| 2026-04-30 12:06 | -2.41852 | 104.56625 | 33889 ft | 512 kts | 351° |
| 2026-04-30 12:06 | -2.34893 | 104.55309 | 33890 ft | 512 kts | 351° |
| 2026-04-30 12:07 | -2.27879 | 104.53984 | 33885 ft | 512 kts | 351° |
| 2026-04-30 12:07 | -2.20866 | 104.52659 | 33888 ft | 512 kts | 351° |
| 2026-04-30 12:08 | -2.13903 | 104.51344 | 33895 ft | 512 kts | 351° |
| 2026-04-30 12:08 | -2.06856 | 104.50014 | 33893 ft | 512 kts | 351° |
| 2026-04-30 12:09 | -1.99891 | 104.48698 | 33890 ft | 512 kts | 351° |
| 2026-04-30 12:09 | -1.92854 | 104.47370 | 33888 ft | 513 kts | 351° |
| 2026-04-30 12:10 | -1.85839 | 104.46045 | 33892 ft | 513 kts | 351° |
| 2026-04-30 12:10 | -1.78811 | 104.44718 | 33893 ft | 513 kts | 351° |
| 2026-04-30 12:11 | -1.71840 | 104.43402 | 33894 ft | 514 kts | 351° |
| 2026-04-30 12:11 | -1.64816 | 104.42076 | 33894 ft | 514 kts | 351° |
| 2026-04-30 12:12 | -1.57791 | 104.40750 | 33892 ft | 514 kts | 351° |
| 2026-04-30 12:12 | -1.50957 | 104.39460 | 33894 ft | 513 kts | 351° |
| 2026-04-30 12:13 | -1.45114 | 104.38357 | 33897 ft | 513 kts | 351° |
| 2026-04-30 12:13 | -1.38100 | 104.37033 | 33898 ft | 512 kts | 351° |
| 2026-04-30 12:14 | -1.31101 | 104.35712 | 33891 ft | 511 kts | 351° |
| 2026-04-30 12:14 | -1.24106 | 104.34392 | 33894 ft | 511 kts | 351° |
| 2026-04-30 12:15 | -1.17119 | 104.33073 | 33892 ft | 510 kts | 351° |
| 2026-04-30 12:15 | -1.10131 | 104.31755 | 33894 ft | 511 kts | 351° |
| 2026-04-30 12:16 | -1.03125 | 104.30434 | 33896 ft | 511 kts | 351° |
| 2026-04-30 12:16 | -0.96184 | 104.29125 | 33893 ft | 511 kts | 351° |
| 2026-04-30 12:17 | -0.85658 | 104.27139 | 33890 ft | 512 kts | 351° |
| 2026-04-30 12:17 | -0.78659 | 104.25819 | 33892 ft | 512 kts | 351° |
| 2026-04-30 12:18 | -0.71700 | 104.24506 | 33892 ft | 512 kts | 351° |
| 2026-04-30 12:18 | -0.64682 | 104.23182 | 33894 ft | 512 kts | 351° |
| 2026-04-30 12:19 | -0.57688 | 104.21863 | 33893 ft | 512 kts | 351° |
| 2026-04-30 12:19 | -0.50674 | 104.20515 | 33893 ft | 512 kts | 351° |
| 2026-04-30 12:20 | -0.43673 | 104.19110 | 33890 ft | 513 kts | 351° |
| 2026-04-30 12:20 | -0.36669 | 104.17705 | 33891 ft | 513 kts | 351° |
| 2026-04-30 12:21 | -0.29718 | 104.16320 | 33889 ft | 512 kts | 351° |
| 2026-04-30 12:21 | -0.22726 | 104.14932 | 33893 ft | 512 kts | 351° |
| 2026-04-30 12:22 | -0.15730 | 104.13544 | 33892 ft | 512 kts | 351° |
| 2026-04-30 12:22 | -0.08741 | 104.12158 | 33892 ft | 511 kts | 351° |
| 2026-04-30 12:23 | -0.01756 | 104.10771 | 33892 ft | 511 kts | 351° |
| 2026-04-30 12:23 | 0.05216 | 104.09387 | 33888 ft | 511 kts | 351° |
| 2026-04-30 12:24 | 0.12184 | 104.08005 | 33891 ft | 510 kts | 351° |
| 2026-04-30 12:24 | 0.19150 | 104.06622 | 33889 ft | 510 kts | 351° |
| 2026-04-30 12:25 | 0.26117 | 104.05240 | 33887 ft | 510 kts | 351° |
| 2026-04-30 12:25 | 0.33036 | 104.03870 | 33882 ft | 509 kts | 351° |
| 2026-04-30 12:26 | 0.39986 | 104.02493 | 33881 ft | 509 kts | 351° |
| 2026-04-30 12:26 | 0.46946 | 104.01113 | 33881 ft | 509 kts | 351° |
| 2026-04-30 12:27 | 0.53903 | 103.99735 | 33881 ft | 509 kts | 351° |
| 2026-04-30 12:27 | 0.60818 | 103.98372 | 33875 ft | 510 kts | 351° |
| 2026-04-30 12:28 | 0.67778 | 103.96988 | 33874 ft | 510 kts | 351° |
| 2026-04-30 12:28 | 0.74745 | 103.95599 | 33874 ft | 511 kts | 351° |
| 2026-04-30 12:29 | 0.81692 | 103.94147 | 33868 ft | 511 kts | 349° |
| 2026-04-30 12:29 | 0.88672 | 103.92649 | 33865 ft | 511 kts | 349° |
| 2026-04-30 12:30 | 0.95636 | 103.91166 | 33862 ft | 511 kts | 350° |
| 2026-04-30 12:30 | 1.02603 | 103.89695 | 33861 ft | 511 kts | 350° |
| 2026-04-30 12:31 | 1.09563 | 103.88224 | 33858 ft | 511 kts | 349° |
| 2026-04-30 12:31 | 1.16510 | 103.86754 | 33876 ft | 511 kts | 349° |
| 2026-04-30 12:32 | 1.23372 | 103.84889 | 33883 ft | 514 kts | 337° |
| 2026-04-30 12:32 | 1.29807 | 103.81721 | 33881 ft | 515 kts | 334° |
| 2026-04-30 12:33 | 1.36114 | 103.78382 | 33857 ft | 516 kts | 334° |
| 2026-04-30 12:33 | 1.42475 | 103.75070 | 33857 ft | 515 kts | 334° |
| 2026-04-30 12:34 | 1.48573 | 103.71302 | 33859 ft | 518 kts | 321° |
| 2026-04-30 12:34 | 1.53492 | 103.66030 | 33858 ft | 519 kts | 308° |
| 2026-04-30 12:35 | 1.57681 | 103.60138 | 33857 ft | 520 kts | 305° |
| 2026-04-30 12:35 | 1.61739 | 103.54139 | 33861 ft | 520 kts | 305° |
| 2026-04-30 12:36 | 1.65833 | 103.48170 | 33860 ft | 521 kts | 306° |
| 2026-04-30 12:36 | 1.69946 | 103.42254 | 33867 ft | 520 kts | 306° |
| 2026-04-30 12:37 | 1.74088 | 103.36322 | 33874 ft | 520 kts | 306° |
| 2026-04-30 12:37 | 1.78224 | 103.30398 | 33874 ft | 520 kts | 306° |
| 2026-04-30 12:38 | 1.82363 | 103.24464 | 33875 ft | 520 kts | 306° |
| 2026-04-30 12:38 | 1.86503 | 103.18527 | 33878 ft | 519 kts | 306° |
| 2026-04-30 12:39 | 1.90635 | 103.12600 | 33879 ft | 519 kts | 306° |
| 2026-04-30 12:39 | 1.94735 | 103.06718 | 33880 ft | 519 kts | 306° |
| 2026-04-30 12:40 | 1.98867 | 103.00791 | 33880 ft | 519 kts | 306° |
| 2026-04-30 12:40 | 2.02991 | 102.94874 | 33882 ft | 518 kts | 306° |
| 2026-04-30 12:41 | 2.07118 | 102.88953 | 33883 ft | 518 kts | 306° |
| 2026-04-30 12:41 | 2.11229 | 102.83053 | 33881 ft | 518 kts | 306° |
| 2026-04-30 12:42 | 2.15349 | 102.77141 | 33881 ft | 518 kts | 306° |
| 2026-04-30 12:42 | 2.19481 | 102.71210 | 33882 ft | 518 kts | 306° |
| 2026-04-30 12:43 | 2.23582 | 102.65323 | 33888 ft | 518 kts | 306° |
| 2026-04-30 12:43 | 2.27705 | 102.59405 | 33887 ft | 518 kts | 306° |
| 2026-04-30 12:44 | 2.31827 | 102.53485 | 33874 ft | 518 kts | 306° |
| 2026-04-30 12:44 | 2.35944 | 102.47573 | 33871 ft | 518 kts | 306° |
| 2026-04-30 12:45 | 2.40069 | 102.41649 | 33868 ft | 518 kts | 306° |
| 2026-04-30 12:45 | 2.44209 | 102.35728 | 33864 ft | 518 kts | 308° |
| 2026-04-30 12:46 | 2.49190 | 102.30602 | 33869 ft | 513 kts | 322° |
| 2026-04-30 12:46 | 2.54701 | 102.26161 | 33871 ft | 513 kts | 324° |
| 2026-04-30 12:47 | 2.60378 | 102.21748 | 33869 ft | 513 kts | 324° |
| 2026-04-30 12:47 | 2.65986 | 102.17392 | 33875 ft | 513 kts | 324° |
| 2026-04-30 12:48 | 2.71622 | 102.12974 | 33869 ft | 514 kts | 324° |
| 2026-04-30 12:48 | 2.77250 | 102.08552 | 33867 ft | 514 kts | 323° |
| 2026-04-30 12:49 | 2.82842 | 102.04159 | 33870 ft | 515 kts | 323° |
| 2026-04-30 12:49 | 2.88487 | 101.99727 | 33867 ft | 515 kts | 323° |
| 2026-04-30 12:50 | 2.94129 | 101.95296 | 33867 ft | 516 kts | 323° |
| 2026-04-30 12:50 | 2.99771 | 101.90865 | 33867 ft | 516 kts | 323° |
| 2026-04-30 12:51 | 3.05425 | 101.86424 | 33875 ft | 516 kts | 323° |
| 2026-04-30 12:51 | 3.11067 | 101.81991 | 33873 ft | 515 kts | 323° |
| 2026-04-30 12:52 | 3.16703 | 101.77562 | 33873 ft | 515 kts | 323° |
| 2026-04-30 12:52 | 3.22342 | 101.73130 | 33871 ft | 515 kts | 323° |
| 2026-04-30 12:53 | 3.27953 | 101.68721 | 33870 ft | 515 kts | 323° |
| 2026-04-30 12:53 | 3.33774 | 101.64577 | 33873 ft | 512 kts | 334° |
| 2026-04-30 12:54 | 3.40177 | 101.61495 | 33881 ft | 511 kts | 338° |
| 2026-04-30 12:54 | 3.46677 | 101.58610 | 33888 ft | 511 kts | 338° |
| 2026-04-30 12:55 | 3.53188 | 101.55748 | 33893 ft | 511 kts | 338° |
| 2026-04-30 12:55 | 3.59697 | 101.52869 | 33890 ft | 510 kts | 338° |
| 2026-04-30 12:56 | 3.66151 | 101.50000 | 33893 ft | 510 kts | 338° |